Time;durP1;ratioP1;P1;durP2;ratioP2;P2;SDS_P1;SDS_P2;PMS_P1;PMS_P2;Temp;Humidity;BMP_temperature;BMP_pressure;BME280_temperature;BME280_humidity;BME280_pressure;Samples;Min_cycle;Max_cycle;Signal;HPM_P1;HPM_P2
2023/05/07 00:02:22;;;;;;;3.67;1.00;;;17.80;82.90;;;;;;4957016;28;20114;-74
2023/05/07 00:04:48;;;;;;;4.68;1.10;;;17.80;83.10;;;;;;4955695;28;20026;-74
2023/05/07 00:07:14;;;;;;;1.33;0.90;;;17.60;84.90;;;;;;4951173;28;20551;-74
2023/05/07 00:09:40;;;;;;;2.33;0.80;;;17.70;83.50;;;;;;4958986;28;20512;-74
2023/05/07 00:12:06;;;;;;;1.10;0.75;;;17.80;81.20;;;;;;4963868;28;20047;-74
2023/05/07 00:14:31;;;;;;;7.10;1.00;;;17.80;81.20;;;;;;4957445;28;20526;-74
2023/05/07 00:16:57;;;;;;;2.70;1.03;;;17.70;81.20;;;;;;4966853;28;20279;-74
2023/05/07 00:19:23;;;;;;;4.83;1.20;;;17.70;80.60;;;;;;4955190;28;20512;-73
2023/05/07 00:21:48;;;;;;;2.10;0.93;;;17.80;80.20;;;;;;4958086;28;20031;-73
2023/05/07 00:24:14;;;;;;;1.20;0.83;;;17.70;80.20;;;;;;4957555;28;20023;-74
2023/05/07 00:26:39;;;;;;;4.13;0.90;;;17.80;80.20;;;;;;4963413;28;20031;-73
2023/05/07 00:29:07;;;;;;;1.50;0.77;;;17.70;81.60;;;;;;4958251;28;20381;-73
2023/05/07 00:31:33;;;;;;;4.20;1.13;;;17.70;81.90;;;;;;4951426;29;20114;-73
2023/05/07 00:33:59;;;;;;;1.10;0.73;;;17.80;80.40;;;;;;4962748;28;20146;-72
2023/05/07 00:36:26;;;;;;;3.57;2.37;;;17.80;81.10;;;;;;4958662;28;20518;-74
2023/05/07 00:38:53;;;;;;;4.45;1.02;;;17.90;79.00;;;;;;4958238;28;20023;-72
2023/05/07 00:41:19;;;;;;;2.97;1.02;;;18.00;79.90;;;;;;4955365;28;20023;-73
2023/05/07 00:43:45;;;;;;;1.38;0.82;;;17.90;80.60;;;;;;4954017;28;20019;-72
2023/05/07 00:46:12;;;;;;;5.13;1.17;;;17.60;84.30;;;;;;4958607;28;20042;-73
2023/05/07 00:48:37;;;;;;;1.42;0.80;;;17.60;86.40;;;;;;4959535;28;20491;-73
2023/05/07 00:51:03;;;;;;;1.53;0.80;;;17.40;84.80;;;;;;4960071;28;20035;-74
2023/05/07 00:53:30;;;;;;;5.17;0.80;;;17.30;84.70;;;;;;4955111;28;20047;-73
2023/05/07 00:55:56;;;;;;;2.00;0.88;;;17.40;85.40;;;;;;4959635;28;20283;-73
2023/05/07 00:58:22;;;;;;;1.83;0.70;;;17.40;84.20;;;;;;4968976;28;20034;-74
2023/05/07 01:00:47;;;;;;;4.65;0.90;;;17.30;84.60;;;;;;4974121;28;20054;-73
2023/05/07 01:03:13;;;;;;;2.20;0.97;;;17.30;85.70;;;;;;4965238;28;20077;-72
2023/05/07 01:05:39;;;;;;;4.03;0.93;;;17.30;84.30;;;;;;4956036;28;20395;-74
2023/05/07 01:08:05;;;;;;;1.92;0.98;;;17.30;85.20;;;;;;4957523;28;20023;-72
2023/05/07 01:10:31;;;;;;;2.63;0.80;;;17.20;86.50;;;;;;4959689;28;20408;-73
2023/05/07 01:12:58;;;;;;;1.27;0.77;;;17.30;85.80;;;;;;4953518;28;20042;-74
2023/05/07 01:15:24;;;;;;;2.15;1.00;;;17.40;85.90;;;;;;4956064;28;20031;-74
2023/05/07 01:17:49;;;;;;;2.47;1.00;;;17.30;86.70;;;;;;4953331;28;20089;-73
2023/05/07 01:20:15;;;;;;;3.80;1.03;;;17.20;87.10;;;;;;4947435;28;20047;-74
2023/05/07 01:22:42;;;;;;;1.73;0.85;;;17.20;87.80;;;;;;4955946;28;20536;-73
2023/05/07 01:25:08;;;;;;;1.80;0.63;;;17.20;89.00;;;;;;4955478;28;20039;-74
2023/05/07 01:27:36;;;;;;;1.17;0.80;;;17.20;87.70;;;;;;4960219;28;20038;-72
2023/05/07 01:30:02;;;;;;;1.25;0.77;;;17.10;90.00;;;;;;4961333;28;20275;-74
2023/05/07 01:32:33;;;;;;;4.13;1.10;;;17.00;89.60;;;;;;4955016;28;20073;-73
2023/05/07 01:35:01;;;;;;;2.65;1.05;;;17.00;90.00;;;;;;4959251;28;20042;-73
2023/05/07 01:37:27;;;;;;;4.07;1.00;;;17.10;90.50;;;;;;4958007;28;20041;-74
2023/05/07 01:39:53;;;;;;;1.73;0.98;;;17.20;89.60;;;;;;4960983;28;20475;-72
2023/05/07 01:42:19;;;;;;;;;;;17.10;90.00;;;;;;4958870;28;20089;-73
2023/05/07 01:44:45;;;;;;;2.05;1.20;;;17.20;90.40;;;;;;4955596;28;19914;-72
2023/05/07 01:47:11;;;;;;;2.63;0.83;;;17.10;90.40;;;;;;4942530;28;20106;-73
2023/05/07 01:49:37;;;;;;;1.58;1.10;;;17.10;90.30;;;;;;4963351;28;20297;-74
2023/05/07 01:52:03;;;;;;;1.50;0.90;;;17.10;91.30;;;;;;4953057;28;20035;-73
2023/05/07 01:54:29;;;;;;;9.48;2.28;;;17.00;91.50;;;;;;4955573;28;20296;-74
2023/05/07 01:56:56;;;;;;;1.20;1.00;;;16.90;91.60;;;;;;4962525;28;20061;-72
2023/05/07 01:59:22;;;;;;;2.22;1.10;;;17.10;90.40;;;;;;4955154;28;20640;-74
2023/05/07 02:01:48;;;;;;;1.47;1.10;;;17.10;92.80;;;;;;4957752;28;20095;-73
2023/05/07 02:04:13;;;;;;;3.17;1.43;;;17.20;90.60;;;;;;4957376;28;20106;-73
2023/05/07 02:06:39;;;;;;;1.97;0.97;;;17.00;92.20;;;;;;4951326;28;20499;-72
2023/05/07 02:09:05;;;;;;;1.90;1.00;;;17.00;92.90;;;;;;4964358;28;20023;-74
2023/05/07 02:11:30;;;;;;;1.20;1.07;;;16.80;92.30;;;;;;4953894;28;20026;-72
2023/05/07 02:13:56;;;;;;;1.63;1.10;;;16.80;92.60;;;;;;4959076;28;20487;-74
2023/05/07 02:16:23;;;;;;;1.93;1.00;;;16.80;93.40;;;;;;4962195;28;20125;-73
2023/05/07 02:18:48;;;;;;;4.28;1.10;;;16.70;93.80;;;;;;4959151;28;20535;-73
2023/05/07 02:21:14;;;;;;;3.93;1.53;;;16.70;93.10;;;;;;4951538;28;20034;-73
2023/05/07 02:23:39;;;;;;;1.43;1.17;;;16.60;93.90;;;;;;4956344;28;20031;-72
2023/05/07 02:26:05;;;;;;;5.63;0.90;;;16.60;93.60;;;;;;4960191;28;20030;-75
2023/05/07 02:28:31;;;;;;;2.03;1.17;;;16.40;94.00;;;;;;4956569;28;20043;-76
2023/05/07 02:30:58;;;;;;;1.73;1.13;;;16.40;95.80;;;;;;4958980;28;20101;-73
2023/05/07 02:33:24;;;;;;;1.63;1.17;;;16.40;96.20;;;;;;4957766;28;20370;-72
2023/05/07 02:35:51;;;;;;;2.60;1.00;;;16.30;97.10;;;;;;4951041;28;20027;-74
2023/05/07 02:38:17;;;;;;;2.10;1.02;;;16.30;97.20;;;;;;4947914;28;20031;-73
2023/05/07 02:40:43;;;;;;;1.58;1.17;;;16.10;98.70;;;;;;4952611;28;20043;-73
2023/05/07 02:43:09;;;;;;;2.47;1.42;;;16.10;98.70;;;;;;4967361;28;20062;-74
2023/05/07 02:45:37;;;;;;;2.67;1.20;;;16.00;99.90;;;;;;4966155;28;20086;-73
2023/05/07 02:48:03;;;;;;;2.35;1.25;;;15.90;96.60;;;;;;4958960;28;20366;-72
2023/05/07 02:50:29;;;;;;;6.55;1.20;;;16.00;96.60;;;;;;4952412;28;20121;-73
2023/05/07 02:52:55;;;;;;;3.90;1.15;;;16.30;95.20;;;;;;4955747;28;20476;-72
2023/05/07 02:55:21;;;;;;;5.33;1.30;;;16.20;95.30;;;;;;4957703;28;20038;-73
2023/05/07 02:57:46;;;;;;;2.08;1.33;;;16.30;95.00;;;;;;4950306;28;20282;-72
2023/05/07 03:00:14;;;;;;;6.57;1.30;;;16.20;95.20;;;;;;4959049;28;20049;-72
2023/05/07 03:02:40;;;;;;;4.50;1.00;;;16.10;94.80;;;;;;4952899;28;20030;-73
2023/05/07 03:05:06;;;;;;;2.67;1.23;;;16.30;94.50;;;;;;4962268;28;20440;-74
2023/05/07 03:07:32;;;;;;;2.55;0.80;;;16.10;95.90;;;;;;4955028;28;20034;-73
2023/05/07 03:09:57;;;;;;;2.40;1.00;;;15.90;95.90;;;;;;4954860;28;20105;-72
2023/05/07 03:12:23;;;;;;;3.57;1.23;;;15.90;95.80;;;;;;4950468;28;20506;-72
2023/05/07 03:14:48;;;;;;;3.97;1.43;;;15.90;96.00;;;;;;4952743;28;20035;-72
2023/05/07 03:17:15;;;;;;;2.07;1.07;;;15.90;96.20;;;;;;4949352;28;20041;-73
2023/05/07 03:19:41;;;;;;;6.70;1.35;;;15.90;96.10;;;;;;4949596;28;20090;-74
2023/05/07 03:22:07;;;;;;;13.33;1.27;;;15.90;96.40;;;;;;4948296;28;20035;-73
2023/05/07 03:24:33;;;;;;;2.92;1.40;;;15.80;95.90;;;;;;4950124;28;20540;-75
2023/05/07 03:26:58;;;;;;;7.00;1.63;;;15.90;96.30;;;;;;4950593;28;20047;-73
2023/05/07 03:29:24;;;;;;;3.13;1.73;;;15.80;96.30;;;;;;4955272;28;20523;-73
2023/05/07 03:31:50;;;;;;;1.77;1.23;;;15.60;97.40;;;;;;4948478;28;20034;-74
2023/05/07 03:34:16;;;;;;;2.53;1.60;;;15.60;97.70;;;;;;4949320;28;20031;-73
2023/05/07 03:36:42;;;;;;;3.50;1.15;;;15.60;97.60;;;;;;4953011;28;20067;-72
2023/05/07 03:39:08;;;;;;;2.43;1.43;;;15.70;97.30;;;;;;4955364;28;20776;-74
2023/05/07 03:41:34;;;;;;;3.73;1.37;;;15.70;96.90;;;;;;4948812;28;20294;-74
2023/05/07 03:44:00;;;;;;;2.45;1.27;;;15.90;97.10;;;;;;4950345;28;20035;-74
2023/05/07 03:46:26;;;;;;;2.67;1.30;;;15.80;97.70;;;;;;4956308;28;20043;-73
2023/05/07 03:48:52;;;;;;;3.35;1.17;;;15.70;98.70;;;;;;4952988;28;20035;-73
2023/05/07 03:51:18;;;;;;;3.45;1.50;;;15.80;97.10;;;;;;4951845;28;20522;-73
2023/05/07 03:53:43;;;;;;;1.97;1.47;;;15.70;97.00;;;;;;4948123;28;20028;-73
2023/05/07 03:56:09;;;;;;;3.60;1.70;;;15.70;97.80;;;;;;4956035;28;20070;-72
2023/05/07 03:58:35;;;;;;;7.43;1.37;;;15.60;97.80;;;;;;4955556;28;20063;-73
2023/05/07 04:01:00;;;;;;;4.43;1.13;;;15.60;97.80;;;;;;4953670;28;20043;-73
2023/05/07 04:03:26;;;;;;;5.35;1.58;;;15.70;97.70;;;;;;4951009;28;20016;-72
2023/05/07 04:05:52;;;;;;;3.47;1.13;;;15.70;97.80;;;;;;4952119;28;20395;-73
2023/05/07 04:08:18;;;;;;;4.28;1.60;;;15.60;97.50;;;;;;4949554;28;20065;-72
2023/05/07 04:10:43;;;;;;;3.40;1.40;;;15.50;98.00;;;;;;4953421;28;20063;-73
2023/05/07 04:13:09;;;;;;;3.47;1.47;;;15.40;98.20;;;;;;4949607;28;20012;-74
2023/05/07 04:15:36;;;;;;;1.73;1.00;;;15.50;98.10;;;;;;4949537;28;20620;-71
2023/05/07 04:18:01;;;;;;;2.58;1.40;;;15.50;98.10;;;;;;4953528;28;20059;-73
2023/05/07 04:20:27;;;;;;;2.23;1.30;;;15.50;98.10;;;;;;4951671;28;20070;-75
2023/05/07 04:22:53;;;;;;;2.13;1.40;;;15.50;98.40;;;;;;4948204;28;20061;-74
2023/05/07 04:25:19;;;;;;;4.05;1.70;;;15.50;98.30;;;;;;4958521;28;20070;-74
2023/05/07 04:27:44;;;;;;;3.03;1.47;;;15.50;98.30;;;;;;4952065;28;20040;-73
2023/05/07 04:30:11;;;;;;;2.70;1.40;;;15.50;98.30;;;;;;4961605;28;20105;-71
2023/05/07 04:32:37;;;;;;;3.53;1.67;;;15.40;98.80;;;;;;4975444;28;20047;-71
2023/05/07 04:35:04;;;;;;;2.28;1.45;;;15.40;99.10;;;;;;4949644;28;20070;-74
2023/05/07 04:37:32;;;;;;;2.60;1.77;;;15.30;99.50;;;;;;4948877;28;20034;-72
2023/05/07 04:39:57;;;;;;;11.73;2.47;;;15.30;99.90;;;;;;4949869;28;20567;-72
2023/05/07 04:42:24;;;;;;;5.03;1.97;;;15.40;99.50;;;;;;4948207;28;20027;-74
2023/05/07 04:44:53;;;;;;;6.78;1.52;;;15.50;99.30;;;;;;4949232;28;20605;-72
2023/05/07 04:47:18;;;;;;;5.55;1.40;;;15.50;99.10;;;;;;4951299;28;20094;-72
2023/05/07 04:49:44;;;;;;;3.60;1.87;;;15.50;99.40;;;;;;4958071;28;20043;-71
2023/05/07 04:52:10;;;;;;;2.50;1.77;;;15.50;99.30;;;;;;4947426;28;20030;-72
2023/05/07 04:54:35;;;;;;;3.37;1.60;;;15.50;98.70;;;;;;4953538;28;20039;-74
2023/05/07 04:57:03;;;;;;;3.20;1.40;;;15.50;98.90;;;;;;4951888;28;20035;-75
2023/05/07 04:59:28;;;;;;;5.15;1.90;;;15.60;99.40;;;;;;4952669;28;20082;-74
2023/05/07 05:01:54;;;;;;;5.87;1.80;;;15.70;99.70;;;;;;4952112;28;20512;-72
2023/05/07 05:04:19;;;;;;;4.33;1.80;;;15.60;98.50;;;;;;4952509;28;20118;-71
2023/05/07 05:06:45;;;;;;;2.57;1.57;;;15.80;98.50;;;;;;4953839;28;20034;-72
2023/05/07 05:09:11;;;;;;;5.13;1.80;;;15.70;99.20;;;;;;4952890;28;20027;-72
2023/05/07 05:11:36;;;;;;;6.57;1.90;;;15.70;99.50;;;;;;4952240;28;20441;-71
2023/05/07 05:14:02;;;;;;;2.27;1.63;;;15.70;99.90;;;;;;4956072;28;20393;-71
2023/05/07 05:16:27;;;;;;;4.17;1.73;;;15.60;99.90;;;;;;4953016;28;20031;-72
2023/05/07 05:18:54;;;;;;;5.50;1.63;;;15.60;99.90;;;;;;4958765;28;20466;-74
2023/05/07 05:21:20;;;;;;;2.20;1.58;;;15.70;99.90;;;;;;4951007;28;20118;-71
2023/05/07 05:23:46;;;;;;;2.05;1.40;;;15.80;99.90;;;;;;4949301;28;20167;-75
2023/05/07 05:26:11;;;;;;;3.20;1.50;;;15.90;99.90;;;;;;4959185;28;20090;-71
2023/05/07 05:28:37;;;;;;;2.47;1.73;;;15.90;99.90;;;;;;4956682;28;20114;-71
2023/05/07 05:31:03;;;;;;;2.53;1.50;;;15.90;99.90;;;;;;4950884;28;20086;-73
2023/05/07 05:33:28;;;;;;;2.23;1.67;;;16.00;99.90;;;;;;4952857;28;20039;-75
2023/05/07 05:35:54;;;;;;;1.60;1.50;;;16.00;99.90;;;;;;4952128;28;20031;-74
2023/05/07 05:38:20;;;;;;;2.38;1.80;;;16.10;99.90;;;;;;4952885;28;20444;-71
2023/05/07 05:40:46;;;;;;;7.28;1.75;;;16.20;99.90;;;;;;4948768;28;20062;-72
2023/05/07 05:43:12;;;;;;;4.00;1.55;;;16.20;99.90;;;;;;4952198;28;20039;-71
2023/05/07 05:45:37;;;;;;;4.50;1.80;;;16.20;99.90;;;;;;4951208;28;20047;-72
2023/05/07 05:48:03;;;;;;;6.70;2.20;;;16.20;99.90;;;;;;4953041;28;20452;-71
2023/05/07 05:50:29;;;;;;;6.27;1.67;;;16.30;99.90;;;;;;4949317;28;20035;-71
2023/05/07 05:52:55;;;;;;;3.30;1.83;;;16.50;99.90;;;;;;4955528;28;20294;-73
2023/05/07 05:55:21;;;;;;;4.33;1.50;;;16.60;99.90;;;;;;4951176;28;20158;-69
2023/05/07 05:57:47;;;;;;;3.60;1.60;;;16.80;99.90;;;;;;4945584;28;20431;-71
2023/05/07 06:00:13;;;;;;;4.10;1.77;;;17.00;99.90;;;;;;4952924;28;20509;-71
2023/05/07 06:02:39;;;;;;;2.17;1.55;;;17.10;99.90;;;;;;4952935;28;20078;-71
2023/05/07 06:05:05;;;;;;;4.97;2.00;;;17.20;99.90;;;;;;4955344;28;20051;-74
2023/05/07 06:07:31;;;;;;;3.38;1.60;;;17.20;99.90;;;;;;4949358;28;20024;-70
2023/05/07 06:09:56;;;;;;;2.67;1.40;;;17.30;99.90;;;;;;4953386;28;20042;-72
2023/05/07 06:12:22;;;;;;;2.67;1.77;;;17.60;99.00;;;;;;4956007;28;20028;-73
2023/05/07 06:14:47;;;;;;;3.37;1.53;;;17.90;97.30;;;;;;4950623;28;20416;-71
2023/05/07 06:17:13;;;;;;;3.17;1.50;;;18.50;95.90;;;;;;4961487;28;20035;-69
2023/05/07 06:19:38;;;;;;;3.00;1.53;;;19.00;95.10;;;;;;4952192;28;20050;-69
2023/05/07 06:22:04;;;;;;;5.40;1.50;;;20.40;92.00;;;;;;4955622;28;20037;-72
2023/05/07 06:24:30;;;;;;;3.67;1.47;;;21.00;89.80;;;;;;4948557;28;20035;-70
2023/05/07 06:26:55;;;;;;;6.47;1.73;;;22.00;85.50;;;;;;4950511;28;20026;-72
2023/05/07 06:29:21;;;;;;;2.20;1.50;;;21.40;86.10;;;;;;4957042;28;20158;-73
2023/05/07 06:31:46;;;;;;;5.20;1.80;;;20.30;88.10;;;;;;4952444;28;20481;-73
2023/05/07 06:34:15;;;;;;;3.23;1.63;;;19.60;91.00;;;;;;4950989;28;20103;-73
2023/05/07 06:36:41;;;;;;;3.38;1.33;;;20.00;92.60;;;;;;4953542;28;20503;-70
2023/05/07 06:39:07;;;;;;;2.25;1.52;;;20.20;91.00;;;;;;4948238;28;20031;-71
2023/05/07 06:41:35;;;;;;;4.70;1.20;;;20.50;88.20;;;;;;4952304;28;20054;-72
2023/05/07 06:44:02;;;;;;;1.73;0.90;;;20.50;85.90;;;;;;4948180;28;20419;-73
2023/05/07 06:46:29;;;;;;;1.80;1.10;;;21.00;84.00;;;;;;4954068;28;20042;-72
2023/05/07 06:48:54;;;;;;;;;;;21.10;82.80;;;;;;4950046;28;20411;-72
2023/05/07 06:51:20;;;;;;;3.55;1.25;;;21.00;86.10;;;;;;4950377;28;19918;-72
2023/05/07 06:53:45;;;;;;;1.33;1.00;;;21.10;84.30;;;;;;4948957;28;20047;-72
2023/05/07 06:56:11;;;;;;;1.60;1.13;;;20.90;81.30;;;;;;4952060;28;20062;-72
2023/05/07 06:58:37;;;;;;;1.40;1.23;;;21.00;80.40;;;;;;4952116;28;20031;-72
2023/05/07 07:01:04;;;;;;;3.42;1.35;;;21.00;83.80;;;;;;4948635;28;20051;-72
2023/05/07 07:03:30;;;;;;;1.27;0.98;;;21.50;87.20;;;;;;4951299;28;20504;-72
2023/05/07 07:05:55;;;;;;;2.60;1.20;;;21.50;86.90;;;;;;4947326;28;20037;-72
2023/05/07 07:08:22;;;;;;;2.57;1.30;;;21.80;86.30;;;;;;4950815;28;20455;-72
2023/05/07 07:10:48;;;;;;;4.50;1.20;;;21.90;85.10;;;;;;4951083;28;20439;-72
2023/05/07 07:13:14;;;;;;;1.85;1.35;;;21.50;84.50;;;;;;4956242;28;20499;-72
2023/05/07 07:15:40;;;;;;;2.25;1.50;;;21.10;84.20;;;;;;4948744;28;20042;-72
2023/05/07 07:18:06;;;;;;;1.27;1.17;;;21.20;86.30;;;;;;4948925;28;20031;-72
2023/05/07 07:20:32;;;;;;;4.40;1.83;;;20.80;88.40;;;;;;4951315;28;20047;-72
2023/05/07 07:22:57;;;;;;;3.35;1.52;;;20.90;88.80;;;;;;4950048;28;20035;-72
2023/05/07 07:25:23;;;;;;;1.43;1.30;;;20.90;89.70;;;;;;4953071;28;20783;-72
2023/05/07 07:27:49;;;;;;;1.92;1.30;;;21.20;90.00;;;;;;4945463;28;20293;-71
2023/05/07 07:30:15;;;;;;;2.15;1.52;;;21.20;89.80;;;;;;4951430;28;20463;-71
2023/05/07 07:32:41;;;;;;;1.77;1.10;;;21.20;89.20;;;;;;4949342;28;20063;-72
2023/05/07 07:35:07;;;;;;;5.00;1.57;;;21.30;88.70;;;;;;4948614;28;20054;-72
2023/05/07 07:37:32;;;;;;;4.78;1.70;;;21.20;89.10;;;;;;4949711;28;20027;-70
2023/05/07 07:39:58;;;;;;;1.57;1.30;;;21.40;89.70;;;;;;4951585;28;20094;-71
2023/05/07 07:42:23;;;;;;;1.97;1.57;;;21.50;87.90;;;;;;4950497;28;20042;-72
2023/05/07 07:44:49;;;;;;;5.53;1.90;;;21.40;87.50;;;;;;4952295;28;20031;-73
2023/05/07 07:47:15;;;;;;;2.20;1.33;;;21.20;88.20;;;;;;4954512;28;20035;-71
2023/05/07 07:49:40;;;;;;;3.97;1.70;;;21.00;88.10;;;;;;4951953;28;20350;-71
2023/05/07 07:52:06;;;;;;;4.13;1.70;;;20.80;89.50;;;;;;4948367;28;20069;-72
2023/05/07 07:54:32;;;;;;;2.80;1.63;;;20.80;89.20;;;;;;4953112;28;20038;-72
2023/05/07 07:56:58;;;;;;;4.65;1.45;;;20.60;88.80;;;;;;4949592;28;20293;-72
2023/05/07 07:59:23;;;;;;;2.20;1.30;;;20.40;90.40;;;;;;4948812;28;20038;-71
2023/05/07 08:01:50;;;;;;;3.17;1.20;;;20.20;91.20;;;;;;4960040;28;20035;-70
2023/05/07 08:04:15;;;;;;;6.30;1.42;;;19.90;92.20;;;;;;4961862;28;20019;-71
2023/05/07 08:06:42;;;;;;;5.50;1.60;;;20.00;93.60;;;;;;4951483;28;20062;-72
2023/05/07 08:09:08;;;;;;;5.43;1.20;;;19.80;92.80;;;;;;4948352;28;20683;-70
2023/05/07 08:11:34;;;;;;;2.00;1.67;;;19.60;93.40;;;;;;4951752;28;20039;-71
2023/05/07 08:14:00;;;;;;;3.03;1.63;;;19.60;92.90;;;;;;4946568;28;20294;-72
2023/05/07 08:16:25;;;;;;;3.83;1.40;;;19.50;92.80;;;;;;4949359;28;20039;-72
2023/05/07 08:18:51;;;;;;;6.17;1.60;;;19.50;92.10;;;;;;4952774;28;20034;-72
2023/05/07 08:21:17;;;;;;;8.40;2.03;;;19.50;91.90;;;;;;4951872;28;20810;-71
2023/05/07 08:23:42;;;;;;;8.43;2.03;;;19.70;93.80;;;;;;4951400;28;20023;-71
2023/05/07 08:26:09;;;;;;;4.23;1.67;;;19.80;94.50;;;;;;4948786;28;20088;-74
2023/05/07 08:28:35;;;;;;;20.50;4.70;;;19.70;93.30;;;;;;4947623;28;20089;-72
2023/05/07 08:31:01;;;;;;;6.32;1.95;;;19.60;94.30;;;;;;4950436;28;20039;-73
2023/05/07 08:33:27;;;;;;;8.80;2.23;;;19.80;93.30;;;;;;4948585;28;20027;-73
2023/05/07 08:35:52;;;;;;;10.65;3.13;;;19.80;93.10;;;;;;4948400;28;20031;-73
2023/05/07 08:38:18;;;;;;;7.53;2.73;;;19.90;93.70;;;;;;4953259;28;20249;-72
2023/05/07 08:40:43;;;;;;;2.87;1.77;;;20.10;92.70;;;;;;4954068;28;20590;-72
2023/05/07 08:43:12;;;;;;;9.47;2.73;;;20.30;93.20;;;;;;4951802;28;20031;-71
2023/05/07 08:45:40;;;;;;;2.70;1.52;;;20.30;92.40;;;;;;4954556;28;20484;-73
2023/05/07 08:48:10;;;;;;;4.03;1.90;;;20.20;91.30;;;;;;4956424;28;20054;-75
2023/05/07 08:50:36;;;;;;;2.05;1.17;;;20.10;90.80;;;;;;4957124;28;20403;-74
2023/05/07 08:53:05;;;;;;;;;;;19.80;91.10;;;;;;4953950;28;20496;-72
2023/05/07 08:55:31;;;;;;;9.55;1.60;;;19.90;91.80;;;;;;4953226;28;19945;-72
2023/05/07 08:57:56;;;;;;;17.33;2.15;;;19.70;91.10;;;;;;4954324;28;20622;-70
2023/05/07 09:00:22;;;;;;;2.10;1.30;;;19.70;92.40;;;;;;4949660;28;20055;-71
2023/05/07 09:02:48;;;;;;;2.65;1.60;;;19.60;91.50;;;;;;4950942;28;20055;-72
2023/05/07 09:05:14;;;;;;;8.93;1.40;;;19.50;90.90;;;;;;4945039;28;20031;-73
2023/05/07 09:07:39;;;;;;;3.95;1.60;;;19.50;91.20;;;;;;4949383;28;20499;-70
2023/05/07 09:10:07;;;;;;;4.83;1.60;;;19.50;91.30;;;;;;4948501;28;20035;-71
2023/05/07 09:12:35;;;;;;;2.45;1.55;;;19.40;92.00;;;;;;4951591;28;20484;-70
2023/05/07 09:15:02;;;;;;;6.18;1.88;;;19.40;94.00;;;;;;4951449;28;20196;-69
2023/05/07 09:17:28;;;;;;;4.78;1.67;;;19.40;94.50;;;;;;4946602;28;20034;-70
2023/05/07 09:19:54;;;;;;;5.72;1.70;;;19.40;95.50;;;;;;4950889;28;20079;-72
2023/05/07 09:22:19;;;;;;;12.10;1.77;;;19.50;96.60;;;;;;4955627;28;20078;-73
2023/05/07 09:24:49;;;;;;;4.37;1.27;;;19.10;97.50;;;;;;4949851;28;20570;-70
2023/05/07 09:27:15;;;;;;;1.83;1.20;;;18.90;98.90;;;;;;4951254;28;20115;-70
2023/05/07 09:29:41;;;;;;;16.42;4.07;;;18.80;99.10;;;;;;4951691;28;20494;-68
2023/05/07 09:32:08;;;;;;;42.85;7.55;;;18.60;99.90;;;;;;4950027;28;20037;-68
2023/05/07 09:34:34;;;;;;;32.47;8.82;;;18.50;99.90;;;;;;4949992;28;20043;-68
2023/05/07 09:37:04;;;;;;;50.45;12.43;;;18.40;99.90;;;;;;4950706;28;20481;-67
2023/05/07 09:39:43;;;;;;;2.22;1.30;;;18.30;99.90;;;;;;4955795;28;20043;-67
2023/05/07 09:42:10;;;;;;;4.03;1.73;;;18.20;99.90;;;;;;4945141;28;20350;-69
2023/05/07 09:44:36;;;;;;;;;;;18.10;99.90;;;;;;4953334;28;20035;-68
2023/05/07 09:47:05;;;;;;;4.75;1.55;;;18.10;99.90;;;;;;4955278;28;20334;-70
2023/05/07 09:49:36;;;;;;;2.22;1.55;;;17.90;99.90;;;;;;4958811;28;20070;-70
2023/05/07 09:52:05;;;;;;;3.17;1.52;;;17.80;99.90;;;;;;4948523;29;20031;-70
2023/05/07 09:54:33;;;;;;;2.63;1.58;;;17.90;99.90;;;;;;4955171;28;20185;-69
2023/05/07 09:57:02;;;;;;;4.88;1.85;;;17.90;99.90;;;;;;4948855;28;20034;-69
2023/05/07 09:59:29;;;;;;;5.97;2.15;;;17.70;99.90;;;;;;4948906;28;20043;-69
2023/05/07 10:01:57;;;;;;;6.85;1.70;;;17.70;99.90;;;;;;4948333;28;20408;-70
2023/05/07 10:04:24;;;;;;;3.90;1.80;;;17.70;99.90;;;;;;4951264;28;20368;-70
2023/05/07 10:06:50;;;;;;;;;;;17.50;99.90;;;;;;4952368;28;20094;-69
2023/05/07 10:09:16;;;;;;;4.85;2.13;;;17.70;99.90;;;;;;4950125;28;19910;-70
2023/05/07 10:11:42;;;;;;;;;;;17.70;99.90;;;;;;4950825;28;20049;-69
2023/05/07 10:14:09;;;;;;;5.45;2.15;;;17.80;99.90;;;;;;4951356;28;19910;-69
2023/05/07 10:16:36;;;;;;;2.67;1.80;;;17.80;99.90;;;;;;4948370;28;20031;-69
2023/05/07 10:19:04;;;;;;;2.38;1.90;;;17.70;99.90;;;;;;4950011;28;20209;-69
2023/05/07 10:21:33;;;;;;;4.00;2.30;;;17.70;99.90;;;;;;4969949;28;20734;-70
2023/05/07 10:24:39;;;;;;;4.03;1.80;;;17.90;99.90;;;;;;4950561;28;20027;-69
2023/05/07 10:27:14;;;;;;;2.63;1.95;;;17.90;99.90;;;;;;4948541;28;20039;-72
2023/05/07 10:30:08;;;;;;;4.55;2.28;;;17.90;99.90;;;;;;4950283;28;20034;-71
2023/05/07 10:32:45;;;;;;;6.25;2.45;;;17.80;99.90;;;;;;4949025;28;20043;-71
2023/05/07 10:35:17;;;;;;;2.88;1.90;;;17.80;99.90;;;;;;4953177;28;20019;-71
2023/05/07 10:37:44;;;;;;;3.67;1.90;;;17.80;99.90;;;;;;4954545;28;20043;-71
2023/05/07 10:40:11;;;;;;;2.65;1.92;;;17.70;99.90;;;;;;4949974;28;20046;-72
2023/05/07 10:42:36;;;;;;;;;;;17.70;99.90;;;;;;4945814;28;20074;-73
2023/05/07 10:45:28;;;;;;;6.60;1.98;;;17.70;99.90;;;;;;4951102;28;19946;-72
2023/05/07 10:48:16;;;;;;;4.68;2.90;;;17.60;99.90;;;;;;4958713;28;20035;-72
2023/05/07 10:50:43;;;;;;;;;;;17.60;99.90;;;;;;4950522;28;20051;-70
2023/05/07 10:53:21;;;;;;;3.63;2.13;;;17.50;99.90;;;;;;4951677;28;19920;-71
2023/05/07 10:56:18;;;;;;;11.70;3.83;;;17.50;99.90;;;;;;4952371;28;20443;-70
2023/05/07 10:58:44;;;;;;;5.43;3.03;;;17.50;99.90;;;;;;4944410;28;20065;-70
2023/05/07 11:01:12;;;;;;;2.97;2.00;;;17.40;99.90;;;;;;4943063;29;20036;-70
2023/05/07 11:04:13;;;;;;;5.07;2.08;;;17.20;99.90;;;;;;4949145;28;20042;-70
2023/05/07 11:06:40;;;;;;;3.08;2.35;;;17.30;99.90;;;;;;4948935;28;20859;-71
2023/05/07 11:09:07;;;;;;;3.13;2.00;;;17.50;99.90;;;;;;4954527;28;20400;-71
2023/05/07 11:11:52;;;;;;;2.88;1.83;;;17.50;99.90;;;;;;4949763;28;20526;-71
2023/05/07 11:14:42;;;;;;;5.28;2.35;;;17.50;99.90;;;;;;4943855;28;20057;-71
2023/05/07 11:17:09;;;;;;;4.85;2.20;;;17.50;99.90;;;;;;4950369;28;20031;-71
2023/05/07 11:19:54;;;;;;;;;;;17.60;99.90;;;;;;4953372;28;20122;-71
2023/05/07 11:22:39;;;;;;;2.80;2.17;;;17.60;99.90;;;;;;4947989;28;20036;-70
2023/05/07 11:25:06;;;;;;;5.53;2.35;;;17.70;99.90;;;;;;4949834;28;20503;-70
2023/05/07 11:27:32;;;;;;;4.03;2.67;;;17.90;99.90;;;;;;4945062;28;20093;-70
2023/05/07 11:29:58;;;;;;;2.85;2.10;;;18.00;99.90;;;;;;4947987;28;20105;-69
2023/05/07 11:32:27;;;;;;;3.88;2.38;;;18.00;99.90;;;;;;4947840;28;20518;-69
2023/05/07 11:34:54;;;;;;;4.38;2.90;;;17.90;99.90;;;;;;4949046;28;20031;-70
2023/05/07 11:37:22;;;;;;;3.88;2.40;;;18.00;99.90;;;;;;4950519;28;20110;-71
2023/05/07 11:39:49;;;;;;;3.70;2.22;;;18.10;99.90;;;;;;4949494;28;20024;-71
2023/05/07 11:42:31;;;;;;;5.68;3.50;;;18.10;99.90;;;;;;4947705;28;20408;-71
2023/05/07 11:44:57;;;;;;;6.40;3.97;;;18.10;99.90;;;;;;4947779;28;20454;-71
2023/05/07 11:47:23;;;;;;;4.32;2.70;;;18.10;99.90;;;;;;4951785;28;20122;-71
2023/05/07 11:49:50;;;;;;;3.83;2.72;;;18.10;99.90;;;;;;4952718;28;20121;-71
2023/05/07 11:52:17;;;;;;;3.10;2.20;;;18.10;99.90;;;;;;4950185;28;20111;-70
2023/05/07 11:54:57;;;;;;;3.75;2.33;;;18.40;99.90;;;;;;4952456;28;20027;-71
2023/05/07 11:57:24;;;;;;;5.15;3.13;;;18.30;99.90;;;;;;4949161;28;20492;-71
2023/05/07 11:59:56;;;;;;;;;;;18.20;99.90;;;;;;4947658;28;20043;-70
2023/05/07 12:02:22;;;;;;;3.88;2.22;;;18.10;99.90;;;;;;4949602;28;20523;-71
2023/05/07 12:04:47;;;;;;;3.47;2.47;;;18.10;99.90;;;;;;4950196;28;20480;-70
2023/05/07 12:07:16;;;;;;;5.13;3.40;;;18.20;99.90;;;;;;4953247;28;20074;-70
2023/05/07 12:09:42;;;;;;;5.93;2.67;;;18.30;99.90;;;;;;4951317;28;20090;-70
2023/05/07 12:12:08;;;;;;;5.90;4.05;;;18.20;99.90;;;;;;4953017;28;20563;-71
2023/05/07 12:14:44;;;;;;;9.63;4.53;;;18.30;99.90;;;;;;4955039;28;20031;-70
2023/05/07 12:17:11;;;;;;;7.47;3.50;;;18.50;99.90;;;;;;4951943;28;20047;-72
2023/05/07 12:19:40;;;;;;;9.80;5.55;;;18.40;99.90;;;;;;4953548;28;20090;-72
2023/05/07 12:22:07;;;;;;;7.22;3.97;;;18.30;99.90;;;;;;4951719;28;20515;-69
2023/05/07 12:24:56;;;;;;;3.40;2.00;;;18.30;99.90;;;;;;4952796;28;20477;-70
2023/05/07 12:27:21;;;;;;;3.10;2.58;;;18.30;99.90;;;;;;4951471;28;20067;-70
2023/05/07 12:29:48;;;;;;;2.63;1.90;;;18.20;99.90;;;;;;4951353;28;20042;-71
2023/05/07 12:32:18;;;;;;;;;;;18.40;99.90;;;;;;4955721;28;20031;-71
2023/05/07 12:34:49;;;;;;;3.03;1.80;;;18.30;99.90;;;;;;4956260;28;19910;-71
2023/05/07 12:37:15;;;;;;;3.33;1.90;;;18.50;99.90;;;;;;4955917;28;20023;-70
2023/05/07 12:39:47;;;;;;;5.50;2.38;;;18.40;99.90;;;;;;4955919;28;20134;-71
2023/05/07 12:42:16;;;;;;;3.45;1.55;;;18.40;99.90;;;;;;4950870;28;20059;-70
2023/05/07 12:44:45;;;;;;;2.60;2.33;;;18.50;99.90;;;;;;4952176;28;20114;-71
2023/05/07 12:47:11;;;;;;;5.78;1.98;;;18.70;99.90;;;;;;4952758;28;20039;-69
2023/05/07 12:49:38;;;;;;;3.58;2.15;;;18.80;99.90;;;;;;4954794;28;20448;-70
2023/05/07 12:52:04;;;;;;;2.83;1.80;;;18.90;99.90;;;;;;4953543;28;20055;-71